Time;durP1;ratioP1;P1;durP2;ratioP2;P2;SDS_P1;SDS_P2;PMS_P1;PMS_P2;Temp;Humidity;BMP_temperature;BMP_pressure;BME280_temperature;BME280_humidity;BME280_pressure;Samples;Min_cycle;Max_cycle;Signal;HPM_P1;HPM_P2
2022/04/15 00:00:06;;;;;;;2.33;1.63;;;21.50;45.80;;;;;;5037119;28;20726;-70
2022/04/15 00:02:38;;;;;;;1.90;1.80;;;21.50;45.90;;;;;;5055503;28;20259;-70
2022/04/15 00:05:29;;;;;;;1.70;1.60;;;21.50;46.00;;;;;;5055259;28;20237;-70
2022/04/15 00:07:56;;;;;;;3.55;1.73;;;21.40;45.80;;;;;;5055308;28;20243;-70
2022/04/15 00:10:23;;;;;;;1.80;1.70;;;21.40;45.90;;;;;;5036921;28;20207;-70
2022/04/15 00:12:51;;;;;;;2.45;1.73;;;21.40;45.90;;;;;;5036893;28;20244;-70
2022/04/15 00:15:18;;;;;;;1.90;1.80;;;21.40;46.00;;;;;;5036845;28;20245;-70
2022/04/15 00:17:46;;;;;;;2.67;2.00;;;21.40;46.00;;;;;;5054511;28;20219;-69
2022/04/15 00:20:13;;;;;;;1.90;1.70;;;21.40;46.20;;;;;;5036845;28;20200;-70
2022/04/15 00:22:40;;;;;;;2.17;1.80;;;21.30;46.00;;;;;;5054811;28;20192;-70
2022/04/15 00:25:10;;;;;;;2.38;2.00;;;21.30;46.00;;;;;;5054727;28;20196;-70
2022/04/15 00:27:37;;;;;;;2.00;1.80;;;21.30;46.10;;;;;;5054802;28;20560;-70
2022/04/15 00:30:05;;;;;;;3.20;1.92;;;21.30;46.10;;;;;;5036943;28;20199;-69
2022/04/15 00:32:32;;;;;;;2.00;1.90;;;21.30;46.20;;;;;;5054367;28;20692;-70
2022/04/15 00:34:59;;;;;;;2.10;1.90;;;21.30;46.10;;;;;;5036838;28;20215;-70
2022/04/15 00:37:27;;;;;;;1.90;1.80;;;21.30;46.20;;;;;;5036502;28;20211;-71
2022/04/15 00:39:54;;;;;;;1.80;1.70;;;21.30;46.20;;;;;;5036524;28;20262;-70
2022/04/15 00:42:22;;;;;;;3.28;1.70;;;21.20;46.20;;;;;;5037344;28;20253;-70
2022/04/15 00:44:53;;;;;;;2.42;1.80;;;21.30;46.20;;;;;;5036299;28;20239;-69
2022/04/15 00:47:24;;;;;;;1.88;1.77;;;21.30;46.30;;;;;;5036591;28;20250;-70
2022/04/15 00:49:51;;;;;;;2.40;1.70;;;21.20;46.80;;;;;;5036352;28;20270;-70
2022/04/15 00:52:18;;;;;;;1.85;1.70;;;21.20;46.30;;;;;;5036071;28;20286;-70
2022/04/15 00:54:45;;;;;;;2.38;1.75;;;21.20;46.20;;;;;;5036139;28;20191;-70
2022/04/15 00:57:16;;;;;;;1.90;1.80;;;21.20;46.20;;;;;;5053970;28;20222;-70
2022/04/15 00:59:44;;;;;;;1.73;1.63;;;21.20;46.30;;;;;;5036111;28;20207;-70
2022/04/15 01:02:11;;;;;;;2.10;1.92;;;21.20;46.30;;;;;;5036265;28;20196;-70
2022/04/15 01:04:38;;;;;;;2.08;1.80;;;21.20;46.30;;;;;;5053768;28;20207;-70
2022/04/15 01:07:06;;;;;;;1.70;1.60;;;21.10;46.30;;;;;;5035200;28;20216;-70
2022/04/15 01:09:33;;;;;;;2.45;1.50;;;21.10;46.40;;;;;;5053710;28;20199;-70
2022/04/15 01:12:00;;;;;;;1.95;1.80;;;21.10;46.30;;;;;;5054218;28;20190;-70
2022/04/15 01:14:27;;;;;;;1.90;1.67;;;21.10;46.40;;;;;;5035849;28;20279;-70
2022/04/15 01:16:56;;;;;;;1.77;1.67;;;21.10;46.40;;;;;;5035687;28;20219;-69
2022/04/15 01:19:23;;;;;;;1.73;1.63;;;21.10;46.50;;;;;;5053569;28;20199;-69
2022/04/15 01:21:50;;;;;;;2.13;1.80;;;21.10;46.60;;;;;;5035681;28;20195;-69
2022/04/15 01:24:19;;;;;;;2.00;1.80;;;21.10;46.50;;;;;;5035881;28;20211;-70
2022/04/15 01:26:46;;;;;;;1.50;1.40;;;21.00;46.50;;;;;;5035858;28;20216;-70
2022/04/15 01:29:13;;;;;;;1.90;1.73;;;21.00;46.50;;;;;;5035920;28;20201;-69
2022/04/15 01:31:40;;;;;;;3.10;1.67;;;21.00;46.50;;;;;;5053885;28;20653;-70
2022/04/15 01:34:08;;;;;;;1.90;1.80;;;21.00;46.50;;;;;;5036657;28;20566;-68
2022/04/15 01:36:35;;;;;;;1.80;1.70;;;21.00;46.60;;;;;;5036110;28;20705;-71
2022/04/15 01:39:02;;;;;;;1.70;1.60;;;21.00;46.60;;;;;;5035846;28;20202;-70
2022/04/15 01:41:31;;;;;;;2.15;1.67;;;21.00;46.60;;;;;;5036226;28;20221;-70
2022/04/15 01:43:58;;;;;;;2.00;1.83;;;21.00;46.60;;;;;;5035748;28;20250;-70
2022/04/15 01:46:25;;;;;;;1.85;1.70;;;20.90;46.50;;;;;;5054337;28;20211;-70
2022/04/15 01:48:53;;;;;;;1.70;1.60;;;20.90;46.50;;;;;;5036007;28;20603;-70
2022/04/15 01:51:20;;;;;;;1.90;1.80;;;20.90;46.50;;;;;;5035694;28;20559;-69
2022/04/15 01:53:47;;;;;;;2.78;1.70;;;20.90;46.50;;;;;;5036239;28;20683;-70
2022/04/15 01:56:14;;;;;;;1.73;1.63;;;20.90;46.50;;;;;;5053467;28;20694;-69
2022/04/15 01:58:42;;;;;;;3.58;1.70;;;20.90;46.50;;;;;;5053617;28;20752;-70
2022/04/15 02:01:09;;;;;;;1.98;1.83;;;20.90;46.50;;;;;;5035606;28;20199;-70
2022/04/15 02:03:36;;;;;;;1.70;1.60;;;20.90;46.50;;;;;;5035590;28;20219;-70
2022/04/15 02:06:03;;;;;;;1.70;1.60;;;20.90;46.50;;;;;;5224758;22;20674;-68
2022/04/15 02:08:30;;;;;;;1.60;1.50;;;20.90;46.50;;;;;;5054734;28;20195;-67
2022/04/15 02:10:57;;;;;;;3.08;2.10;;;20.90;46.50;;;;;;5035531;28;20645;-67
2022/04/15 02:13:25;;;;;;;1.98;1.75;;;20.90;46.50;;;;;;5035216;28;20661;-68
2022/04/15 02:15:53;;;;;;;1.75;1.65;;;20.90;46.50;;;;;;5035253;28;20275;-68
2022/04/15 02:18:20;;;;;;;2.38;1.73;;;20.90;46.50;;;;;;5053965;28;20199;-68
2022/04/15 02:20:47;;;;;;;1.70;1.60;;;20.90;46.50;;;;;;5039927;28;20202;-67
2022/04/15 02:23:15;;;;;;;1.65;1.55;;;20.80;46.50;;;;;;5039138;28;20206;-68
2022/04/15 02:25:41;;;;;;;2.45;1.50;;;20.80;46.40;;;;;;5038978;28;20227;-68
2022/04/15 02:28:09;;;;;;;1.92;1.67;;;20.80;46.50;;;;;;5039442;28;20217;-68
2022/04/15 02:30:35;;;;;;;3.05;1.70;;;20.90;46.50;;;;;;5039236;28;20203;-67
2022/04/15 02:33:04;;;;;;;1.90;1.80;;;20.80;46.50;;;;;;5039195;28;20639;-68
2022/04/15 02:35:31;;;;;;;1.70;1.60;;;20.80;46.60;;;;;;5039007;28;20622;-68
2022/04/15 02:37:58;;;;;;;1.70;1.60;;;20.80;46.70;;;;;;5057032;28;20194;-68
2022/04/15 02:40:25;;;;;;;1.80;1.70;;;20.80;46.70;;;;;;5056709;28;20884;-68
2022/04/15 02:42:52;;;;;;;1.60;1.42;;;20.80;46.80;;;;;;5038980;28;20290;-68
2022/04/15 02:45:19;;;;;;;2.50;1.70;;;20.70;46.70;;;;;;5056676;28;20219;-68
2022/04/15 02:47:46;;;;;;;1.60;1.50;;;20.70;46.80;;;;;;5038667;28;20249;-67
2022/04/15 02:54:02;;;;;;;2.13;1.60;;;20.70;46.90;;;;;;5058013;28;20162;-70
2022/04/15 02:56:29;;;;;;;1.90;1.80;;;20.70;46.90;;;;;;5056176;28;20222;-70
2022/04/15 02:58:57;;;;;;;2.10;1.90;;;20.70;46.90;;;;;;5038399;28;20261;-70
2022/04/15 03:01:23;;;;;;;2.10;1.95;;;20.70;46.90;;;;;;5038388;28;20286;-71
2022/04/15 03:03:50;;;;;;;2.13;1.75;;;20.70;46.90;;;;;;5056273;28;20661;-70
2022/04/15 03:06:17;;;;;;;1.80;1.70;;;20.70;46.90;;;;;;5038312;28;20697;-70
2022/04/15 03:08:44;;;;;;;1.70;1.60;;;20.70;47.00;;;;;;5038400;28;20204;-70
2022/04/15 03:11:13;;;;;;;1.77;1.67;;;20.70;47.00;;;;;;5038169;28;20195;-70
2022/04/15 03:13:40;;;;;;;3.25;1.98;;;20.60;46.90;;;;;;5038043;28;20206;-70
2022/04/15 03:16:07;;;;;;;2.00;1.77;;;20.70;47.00;;;;;;5038071;28;20287;-72
2022/04/15 03:18:34;;;;;;;2.10;1.80;;;20.60;47.00;;;;;;5056071;28;20636;-70
2022/04/15 03:21:01;;;;;;;2.05;1.83;;;20.60;47.00;;;;;;5056438;28;20188;-70
2022/04/15 03:23:29;;;;;;;1.88;1.77;;;20.70;47.20;;;;;;5038079;28;20217;-70
2022/04/15 03:25:56;;;;;;;1.77;1.67;;;20.60;47.10;;;;;;5038050;28;20231;-70
2022/04/15 03:28:24;;;;;;;1.77;1.67;;;20.60;47.10;;;;;;5055812;28;20190;-70
2022/04/15 03:30:51;;;;;;;1.80;1.70;;;20.70;47.10;;;;;;5054796;28;20194;-70
2022/04/15 03:33:18;;;;;;;1.83;1.73;;;20.70;47.20;;;;;;5037793;28;20595;-70
2022/04/15 03:35:45;;;;;;;1.92;1.83;;;20.70;47.00;;;;;;5055676;28;20204;-70
2022/04/15 03:38:12;;;;;;;1.77;1.67;;;20.70;46.90;;;;;;5037855;28;20194;-70
2022/04/15 03:40:39;;;;;;;1.95;1.80;;;20.70;46.90;;;;;;5037747;28;20200;-69
2022/04/15 03:43:06;;;;;;;1.90;1.80;;;20.80;46.80;;;;;;5055354;28;20195;-69
2022/04/15 03:45:34;;;;;;;1.90;1.80;;;20.80;46.80;;;;;;5037313;28;20227;-69
2022/04/15 03:48:01;;;;;;;1.80;1.70;;;20.80;46.60;;;;;;5037592;28;20282;-69
2022/04/15 03:50:28;;;;;;;1.85;1.75;;;20.80;46.40;;;;;;5037661;28;20591;-69
2022/04/15 03:52:55;;;;;;;1.83;1.60;;;20.80;46.40;;;;;;5037503;28;20294;-69
2022/04/15 03:55:24;;;;;;;1.90;1.80;;;20.80;47.10;;;;;;5037533;28;20231;-70
2022/04/15 03:57:51;;;;;;;1.85;1.75;;;20.80;46.40;;;;;;5037989;28;20209;-69
2022/04/15 04:00:19;;;;;;;1.90;1.80;;;20.80;46.40;;;;;;5055814;28;20219;-69
2022/04/15 04:02:48;;;;;;;2.40;1.80;;;20.80;46.40;;;;;;5055355;28;20669;-69
2022/04/15 04:05:15;;;;;;;2.53;2.33;;;20.80;46.40;;;;;;5036879;28;20222;-69
2022/04/15 04:07:42;;;;;;;2.35;2.15;;;20.80;46.50;;;;;;5055574;28;20183;-69
2022/04/15 04:10:10;;;;;;;2.40;2.30;;;20.70;46.30;;;;;;5037701;28;20195;-69
2022/04/15 04:12:37;;;;;;;2.20;2.00;;;20.80;46.40;;;;;;5043288;28;20634;-70
2022/04/15 04:15:06;;;;;;;2.10;2.00;;;20.70;46.30;;;;;;5063822;28;20184;-70
2022/04/15 04:17:33;;;;;;;2.08;1.98;;;20.70;46.30;;;;;;5038968;28;20199;-69
2022/04/15 04:20:01;;;;;;;1.98;1.88;;;20.70;46.30;;;;;;5037547;28;20576;-69
2022/04/15 04:22:29;;;;;;;1.98;1.80;;;20.70;46.30;;;;;;5037164;28;20249;-69
2022/04/15 04:24:56;;;;;;;2.08;1.73;;;20.70;46.30;;;;;;5036799;28;20266;-69
2022/04/15 04:27:23;;;;;;;1.98;1.88;;;20.70;46.30;;;;;;5036694;28;20558;-69
2022/04/15 04:29:50;;;;;;;1.80;1.70;;;20.70;46.30;;;;;;5054986;28;20266;-70
2022/04/15 04:32:17;;;;;;;1.95;1.75;;;20.70;46.30;;;;;;5054546;28;20578;-69
2022/04/15 04:34:44;;;;;;;1.98;1.85;;;20.70;46.30;;;;;;5036676;28;20626;-69
2022/04/15 04:37:13;;;;;;;1.90;1.80;;;20.70;46.30;;;;;;5036542;28;20250;-68
2022/04/15 04:39:39;;;;;;;2.35;1.77;;;20.70;46.40;;;;;;5036618;28;20206;-69
2022/04/15 04:42:07;;;;;;;2.03;1.85;;;20.70;46.30;;;;;;5035393;28;20230;-69
2022/04/15 04:44:35;;;;;;;1.98;1.88;;;20.70;46.30;;;;;;5036532;28;20313;-69
2022/04/15 04:47:02;;;;;;;1.90;1.75;;;20.70;46.20;;;;;;5036245;28;20636;-69
2022/04/15 04:49:29;;;;;;;2.30;2.10;;;20.80;46.30;;;;;;5054320;28;20210;-69
2022/04/15 04:51:57;;;;;;;2.25;2.05;;;20.70;46.00;;;;;;5036243;28;20195;-69
2022/04/15 04:54:25;;;;;;;1.90;1.80;;;20.70;46.20;;;;;;5036267;28;20195;-69
2022/04/15 04:56:52;;;;;;;2.17;1.90;;;20.70;46.30;;;;;;5036229;28;20669;-69
2022/04/15 04:59:22;;;;;;;1.95;1.85;;;20.80;46.20;;;;;;5054331;28;20244;-71
2022/04/15 05:01:49;;;;;;;2.50;1.70;;;20.70;46.20;;;;;;5036443;28;20206;-69
2022/04/15 05:04:16;;;;;;;2.42;2.10;;;20.80;46.10;;;;;;5036574;28;20199;-70
2022/04/15 05:06:43;;;;;;;1.90;1.80;;;20.80;46.20;;;;;;5035866;28;20281;-69
2022/04/15 05:09:10;;;;;;;1.83;1.73;;;20.80;46.00;;;;;;5053754;28;20274;-69
2022/04/15 05:11:38;;;;;;;2.20;2.00;;;20.90;46.20;;;;;;5053897;28;20206;-69
2022/04/15 05:14:05;;;;;;;2.58;1.75;;;20.90;46.00;;;;;;5036069;28;20290;-69
2022/04/15 05:16:32;;;;;;;2.08;1.90;;;20.90;45.90;;;;;;5053751;28;20199;-69
2022/04/15 05:18:59;;;;;;;2.17;1.92;;;20.90;46.50;;;;;;5054049;28;20191;-69
2022/04/15 05:21:26;;;;;;;2.42;2.00;;;20.90;45.80;;;;;;5035616;28;20270;-69
2022/04/15 05:23:53;;;;;;;2.25;2.05;;;20.90;45.80;;;;;;5035498;28;20293;-69
2022/04/15 05:26:21;;;;;;;2.05;1.90;;;20.90;45.80;;;;;;5035450;28;20281;-69
2022/04/15 05:28:49;;;;;;;2.25;1.98;;;21.00;45.80;;;;;;5035868;28;20210;-69
2022/04/15 05:31:16;;;;;;;1.70;1.60;;;21.00;45.60;;;;;;5035495;28;20204;-70
2022/04/15 05:33:43;;;;;;;2.10;1.90;;;21.00;45.50;;;;;;5053224;28;20218;-70
2022/04/15 05:36:10;;;;;;;1.92;1.77;;;21.10;45.50;;;;;;5035372;28;20306;-70
2022/04/15 05:38:37;;;;;;;1.83;1.73;;;21.10;45.40;;;;;;5053513;28;20246;-70
2022/04/15 05:41:04;;;;;;;2.08;1.98;;;21.20;45.30;;;;;;5035669;28;20199;-69
2022/04/15 05:43:31;;;;;;;2.38;1.80;;;21.30;45.20;;;;;;5035250;28;20657;-70
2022/04/15 05:45:59;;;;;;;2.03;1.83;;;21.40;45.00;;;;;;5035412;28;20234;-70
2022/04/15 05:48:26;;;;;;;1.80;1.70;;;21.60;44.70;;;;;;5035673;28;20269;-71
2022/04/15 05:50:53;;;;;;;1.95;1.85;;;21.80;44.50;;;;;;5035472;28;20628;-70
2022/04/15 05:53:21;;;;;;;2.35;2.15;;;22.00;44.20;;;;;;5035164;28;20191;-69
2022/04/15 05:55:48;;;;;;;2.10;2.00;;;22.10;43.90;;;;;;5053618;28;20211;-69
2022/04/15 05:58:15;;;;;;;1.98;1.88;;;22.20;43.80;;;;;;5035489;28;20249;-70
2022/04/15 06:00:42;;;;;;;2.20;2.10;;;22.30;43.60;;;;;;5035515;28;20199;-69
2022/04/15 06:03:10;;;;;;;2.08;1.90;;;22.40;43.30;;;;;;5035447;28;20219;-70
2022/04/15 06:05:37;;;;;;;2.00;1.80;;;22.50;43.30;;;;;;5035019;28;20313;-70
2022/04/15 06:08:05;;;;;;;2.03;1.92;;;22.60;43.20;;;;;;5053304;28;20629;-70
2022/04/15 06:10:32;;;;;;;1.80;1.70;;;22.60;43.10;;;;;;5035589;28;20199;-70
2022/04/15 06:13:03;;;;;;;2.33;2.13;;;22.70;43.00;;;;;;5035106;28;20234;-70
2022/04/15 06:15:32;;;;;;;2.03;1.92;;;22.80;42.80;;;;;;5035041;28;20302;-70
2022/04/15 06:17:59;;;;;;;2.10;2.00;;;22.90;42.70;;;;;;5035251;28;20206;-69
2022/04/15 06:20:28;;;;;;;2.00;1.90;;;23.00;42.50;;;;;;5035449;28;20266;-69
2022/04/15 06:22:55;;;;;;;2.28;2.08;;;23.10;42.20;;;;;;5035019;28;20199;-70
2022/04/15 06:25:22;;;;;;;2.30;2.08;;;23.30;42.10;;;;;;5052719;28;20304;-70
2022/04/15 06:27:49;;;;;;;2.08;1.98;;;23.30;41.90;;;;;;5035339;28;20206;-70
2022/04/15 06:30:16;;;;;;;2.28;1.83;;;23.40;41.80;;;;;;5034916;28;20325;-70
2022/04/15 06:32:43;;;;;;;2.00;1.90;;;23.40;41.70;;;;;;5053058;28;20187;-70
2022/04/15 06:35:10;;;;;;;1.95;1.80;;;23.40;41.60;;;;;;5035678;28;20230;-70
2022/04/15 06:37:39;;;;;;;2.28;2.05;;;23.40;41.60;;;;;;5035073;28;20562;-70
2022/04/15 06:40:07;;;;;;;2.05;1.88;;;23.40;41.70;;;;;;5035192;28;20231;-70
2022/04/15 06:42:34;;;;;;;2.10;1.95;;;23.30;41.70;;;;;;5035078;28;20572;-70
2022/04/15 06:45:02;;;;;;;2.25;2.05;;;23.40;41.80;;;;;;5034687;28;20192;-70
2022/04/15 06:47:29;;;;;;;2.28;2.08;;;23.40;41.60;;;;;;5034778;28;20203;-70
2022/04/15 06:49:56;;;;;;;2.40;2.20;;;23.60;41.40;;;;;;5052888;28;20191;-69
2022/04/15 06:52:23;;;;;;;2.55;2.35;;;23.70;41.20;;;;;;5035000;28;20195;-70
2022/04/15 06:54:52;;;;;;;2.28;1.92;;;23.90;40.90;;;;;;5035558;28;20273;-70
2022/04/15 06:57:18;;;;;;;2.47;2.28;;;24.00;40.60;;;;;;5035725;28;20662;-70
2022/04/15 06:59:45;;;;;;;2.20;1.92;;;24.20;40.30;;;;;;5034710;28;20690;-70
2022/04/15 07:02:12;;;;;;;2.38;2.20;;;24.30;40.10;;;;;;5035148;28;20283;-70
2022/04/15 07:04:39;;;;;;;2.63;2.08;;;24.40;39.80;;;;;;5035093;28;20213;-70
2022/04/15 07:07:06;;;;;;;2.03;1.83;;;24.50;39.60;;;;;;5037908;28;20322;-69
2022/04/15 07:09:33;;;;;;;2.00;1.90;;;24.60;39.40;;;;;;5038129;28;20552;-70
2022/04/15 07:12:02;;;;;;;2.08;1.88;;;24.70;39.20;;;;;;5038115;28;20232;-72
2022/04/15 07:14:30;;;;;;;2.00;1.90;;;24.80;39.10;;;;;;5056055;28;20200;-72
2022/04/15 07:16:57;;;;;;;1.73;1.63;;;24.90;39.00;;;;;;5038101;28;20219;-71
2022/04/15 07:19:24;;;;;;;1.85;1.75;;;25.00;38.80;;;;;;5056142;28;20196;-71
2022/04/15 07:21:51;;;;;;;1.90;1.80;;;25.00;38.50;;;;;;5039237;28;20223;-70
2022/04/15 07:24:18;;;;;;;1.73;1.63;;;25.10;38.60;;;;;;5039044;28;20226;-70
2022/04/15 07:26:46;;;;;;;2.08;1.90;;;25.20;38.30;;;;;;5040557;28;20287;-70
2022/04/15 07:29:14;;;;;;;1.92;1.83;;;25.30;38.20;;;;;;5042596;28;20199;-72
2022/04/15 07:31:42;;;;;;;2.00;1.80;;;25.30;38.00;;;;;;5058316;28;20245;-70
2022/04/15 07:34:09;;;;;;;2.00;1.60;;;25.40;38.00;;;;;;5038474;28;20684;-70
2022/04/15 07:36:53;;;;;;;1.65;1.55;;;25.40;37.80;;;;;;5055699;28;20207;-69
2022/04/15 07:39:21;;;;;;;1.50;1.40;;;25.40;37.70;;;;;;5037819;28;20218;-69
2022/04/15 07:41:48;;;;;;;1.73;1.63;;;25.50;37.50;;;;;;5037491;28;20199;-70
2022/04/15 07:44:16;;;;;;;1.50;1.42;;;25.60;37.50;;;;;;5037710;28;20202;-70
2022/04/15 07:46:44;;;;;;;1.63;1.52;;;25.70;37.30;;;;;;5037366;28;20318;-69
2022/04/15 07:49:10;;;;;;;1.63;1.52;;;25.70;37.30;;;;;;5037615;28;20199;-69
2022/04/15 07:51:38;;;;;;;1.67;1.58;;;25.80;37.20;;;;;;5037630;28;20209;-69
2022/04/15 07:54:06;;;;;;;1.83;1.73;;;25.80;37.00;;;;;;5037448;28;20223;-70
2022/04/15 07:56:33;;;;;;;1.70;1.60;;;25.90;37.00;;;;;;5037278;28;20211;-70
2022/04/15 07:59:00;;;;;;;1.55;1.45;;;25.90;36.90;;;;;;5037766;28;20203;-70
2022/04/15 08:01:28;;;;;;;2.10;1.60;;;25.90;36.70;;;;;;5055032;28;20219;-70
2022/04/15 08:03:55;;;;;;;3.75;3.45;;;26.00;36.70;;;;;;5037039;28;20634;-69
2022/04/15 08:06:23;;;;;;;4.60;4.15;;;26.10;37.10;;;;;;5036928;28;20231;-69
2022/04/15 08:08:50;;;;;;;4.35;3.40;;;26.10;37.20;;;;;;5107870;22;20223;-66
2022/04/15 08:11:17;;;;;;;4.75;4.35;;;26.00;37.00;;;;;;5037110;28;20203;-66
2022/04/15 08:13:44;;;;;;;4.35;3.80;;;26.00;37.30;;;;;;5036861;28;20507;-66
2022/04/15 08:16:11;;;;;;;6.30;4.10;;;26.10;37.10;;;;;;5036642;28;20704;-65
2022/04/15 08:18:40;;;;;;;6.05;5.43;;;26.20;37.30;;;;;;5054633;28;20630;-69
2022/04/15 08:21:07;;;;;;;6.93;5.35;;;26.30;37.50;;;;;;5063651;22;20243;-70
2022/04/15 08:23:34;;;;;;;6.07;5.57;;;26.30;36.80;;;;;;5256815;22;20304;-60
2022/04/15 08:26:01;;;;;;;6.15;5.57;;;26.40;36.80;;;;;;5124041;22;20230;-73
2022/04/15 08:28:28;;;;;;;6.40;5.50;;;26.40;36.60;;;;;;5036605;28;20298;-73
2022/04/15 08:30:55;;;;;;;5.72;4.95;;;26.50;36.50;;;;;;5037756;28;20219;-72
2022/04/15 08:33:23;;;;;;;7.28;6.22;;;26.50;36.70;;;;;;5036385;28;20581;-72
2022/04/15 08:35:52;;;;;;;7.28;5.07;;;26.50;36.20;;;;;;5209380;22;21477;-72
2022/04/15 08:38:19;;;;;;;8.15;5.60;;;26.60;36.70;;;;;;5036836;28;20196;-74
2022/04/15 08:40:49;;;;;;;7.72;5.60;;;26.60;36.40;;;;;;5036477;28;20219;-74
2022/04/15 08:43:16;;;;;;;7.68;5.05;;;26.60;36.90;;;;;;5052121;22;20189;-61
2022/04/15 08:45:44;;;;;;;12.00;8.65;;;26.60;37.20;;;;;;5054586;28;20667;-62
2022/04/15 08:48:11;;;;;;;21.75;11.68;;;26.60;36.20;;;;;;5035981;28;20227;-62
2022/04/15 08:50:38;;;;;;;23.35;12.57;;;26.60;36.30;;;;;;5035969;28;20214;-61
2022/04/15 08:53:07;;;;;;;24.00;14.00;;;26.60;36.30;;;;;;5069023;22;20270;-74
2022/04/15 08:55:34;;;;;;;32.58;15.20;;;26.70;36.50;;;;;;5079137;22;20231;-72
2022/04/15 08:58:01;;;;;;;27.85;14.13;;;26.70;36.90;;;;;;5036225;28;20198;-72
2022/04/15 09:00:29;;;;;;;31.52;15.02;;;26.70;36.40;;;;;;5036236;28;20254;-73
2022/04/15 09:02:56;;;;;;;25.63;13.23;;;26.70;36.40;;;;;;5036102;28;20195;-73
2022/04/15 09:05:24;;;;;;;19.85;11.68;;;26.80;36.90;;;;;;5120782;22;20241;-73
2022/04/15 09:07:53;;;;;;;18.40;11.68;;;26.80;36.50;;;;;;5054134;28;20253;-73
2022/04/15 09:10:21;;;;;;;19.50;11.70;;;26.80;36.60;;;;;;5095239;22;20288;-73
2022/04/15 09:12:52;;;;;;;15.75;9.90;;;26.80;37.10;;;;;;5053748;28;20199;-73
2022/04/15 09:15:19;;;;;;;15.77;9.77;;;26.80;36.40;;;;;;5036117;28;20195;-73
2022/04/15 09:17:49;;;;;;;13.48;8.98;;;26.80;36.40;;;;;;5105231;22;20194;-72
2022/04/15 09:20:17;;;;;;;13.05;8.73;;;26.80;36.20;;;;;;5033486;28;20219;-72
2022/04/15 09:22:44;;;;;;;10.93;8.45;;;26.80;36.30;;;;;;5245294;22;20245;-74
2022/04/15 09:25:11;;;;;;;11.48;8.30;;;26.80;36.30;;;;;;5036281;28;20203;-75
2022/04/15 09:27:40;;;;;;;13.73;8.20;;;26.70;36.10;;;;;;5053355;28;20226;-75
2022/04/15 09:30:07;;;;;;;13.30;7.93;;;26.80;36.60;;;;;;5053843;28;20211;-75
2022/04/15 09:32:34;;;;;;;11.48;7.40;;;26.70;36.70;;;;;;5035748;28;20205;-75
2022/04/15 09:35:03;;;;;;;9.15;7.30;;;26.80;36.30;;;;;;5186829;22;21534;-76
2022/04/15 09:37:31;;;;;;;10.55;7.07;;;26.80;36.30;;;;;;5054471;28;20671;-73
2022/04/15 09:40:09;;;;;;;10.35;7.45;;;26.80;36.30;;;;;;5156880;22;20581;-73
2022/04/15 09:42:36;;;;;;;13.57;7.32;;;26.80;37.50;;;;;;5050986;22;20597;-62
2022/04/15 09:45:14;;;;;;;9.35;7.25;;;26.70;37.70;;;;;;5119976;22;20242;-73
2022/04/15 09:47:42;;;;;;;8.32;6.32;;;26.70;36.80;;;;;;5094631;28;20202;-74
2022/04/15 09:50:12;;;;;;;11.00;8.35;;;26.60;36.90;;;;;;5086988;28;20210;-73
2022/04/15 09:52:40;;;;;;;10.85;9.85;;;26.50;36.20;;;;;;5074420;28;20195;-72
2022/04/15 09:55:10;;;;;;;8.80;7.88;;;26.50;36.20;;;;;;5074141;28;20569;-73
2022/04/15 09:57:37;;;;;;;9.30;8.50;;;26.30;36.40;;;;;;5074124;28;20175;-73
2022/04/15 10:00:08;;;;;;;6.57;5.97;;;26.20;37.30;;;;;;5055764;28;20264;-72
2022/04/15 10:02:40;;;;;;;10.18;8.95;;;26.20;37.20;;;;;;5074299;28;20562;-74
2022/04/15 10:05:08;;;;;;;8.63;7.85;;;26.00;36.60;;;;;;5074198;28;20175;-72
2022/04/15 10:07:35;;;;;;;8.88;8.18;;;25.80;36.80;;;;;;5055885;28;20222;-73
2022/04/15 10:10:02;;;;;;;8.18;7.38;;;25.80;37.00;;;;;;5074647;28;20211;-73
2022/04/15 10:12:29;;;;;;;7.53;6.00;;;25.70;36.90;;;;;;5074215;28;20194;-73
2022/04/15 10:14:56;;;;;;;9.57;8.68;;;25.60;38.10;;;;;;5074627;28;20198;-74
2022/04/15 10:17:23;;;;;;;8.68;7.88;;;25.60;37.50;;;;;;5056394;28;20240;-74
2022/04/15 10:19:52;;;;;;;7.30;6.60;;;25.60;37.30;;;;;;5055839;28;20238;-73
2022/04/15 10:22:20;;;;;;;8.23;7.43;;;25.60;37.60;;;;;;5073982;28;20186;-73
2022/04/15 10:24:47;;;;;;;6.80;6.10;;;25.60;37.40;;;;;;5250793;22;20338;-72
2022/04/15 10:27:14;;;;;;;7.10;6.40;;;25.50;37.60;;;;;;5035364;28;20302;-73
2022/04/15 10:29:41;;;;;;;8.77;7.97;;;25.40;37.40;;;;;;5035080;28;20223;-73
2022/04/15 10:32:13;;;;;;;9.82;8.93;;;25.30;37.30;;;;;;5035920;28;20586;-73
2022/04/15 10:34:47;;;;;;;9.02;8.23;;;25.20;36.70;;;;;;5035344;28;20223;-73
2022/04/15 10:37:16;;;;;;;8.38;7.68;;;25.10;36.80;;;;;;5034795;28;20196;-72
2022/04/15 10:39:48;;;;;;;8.25;7.47;;;25.10;37.30;;;;;;5036720;28;20229;-74
2022/04/15 10:42:18;;;;;;;6.65;6.03;;;25.10;37.20;;;;;;5038999;28;20191;-74
2022/04/15 10:44:45;;;;;;;5.35;4.50;;;25.10;37.20;;;;;;5038902;28;20285;-73
2022/04/15 10:47:26;;;;;;;5.22;4.72;;;25.10;37.50;;;;;;5038677;28;20219;-74
2022/04/15 10:49:55;;;;;;;8.40;7.03;;;25.20;37.70;;;;;;5038595;28;20219;-73
2022/04/15 10:52:25;;;;;;;5.00;4.60;;;25.10;37.10;;;;;;5038837;28;20552;-73
2022/04/15 10:54:53;;;;;;;5.90;5.40;;;25.10;37.50;;;;;;5038511;28;20222;-73
2022/04/15 10:57:21;;;;;;;5.88;5.38;;;25.10;37.30;;;;;;5038637;28;20191;-73
2022/04/15 11:02:45;;;;;;;6.43;5.47;;;25.10;37.60;;;;;;5015219;28;20207;-73
2022/04/15 11:05:13;;;;;;;6.15;5.63;;;25.00;36.40;;;;;;5056109;28;20214;-73
2022/04/15 11:07:49;;;;;;;5.97;5.38;;;24.90;35.90;;;;;;5038391;28;20229;-73
2022/04/15 11:12:54;;;;;;;5.50;4.93;;;24.90;36.30;;;;;;5244446;22;20523;-73
2022/04/15 11:15:40;;;;;;;5.68;5.07;;;24.90;35.50;;;;;;5038045;28;20198;-74
2022/04/15 11:18:14;;;;;;;6.15;5.10;;;24.90;36.10;;;;;;5037799;28;20261;-74
2022/04/15 11:23:25;;;;;;;5.50;4.38;;;25.00;36.70;;;;;;5891701;22;20213;-72
2022/04/15 11:25:52;;;;;;;4.22;3.70;;;24.90;37.20;;;;;;5321330;22;20216;-71
2022/04/15 11:28:20;;;;;;;3.53;3.22;;;25.00;38.30;;;;;;5078421;28;20214;-73
2022/04/15 11:30:49;;;;;;;3.80;3.40;;;25.00;38.00;;;;;;5065659;28;20238;-74
2022/04/15 11:33:17;;;;;;;3.28;3.00;;;25.00;38.10;;;;;;5132262;22;20242;-73
2022/04/15 11:35:44;;;;;;;3.10;2.80;;;25.10;38.40;;;;;;5056306;28;20187;-73
2022/04/15 11:38:12;;;;;;;3.75;2.60;;;25.10;38.30;;;;;;5038047;28;20243;-73
2022/04/15 11:40:43;;;;;;;4.55;2.83;;;25.10;38.50;;;;;;5055921;28;20215;-73
2022/04/15 11:43:10;;;;;;;3.00;2.70;;;25.20;38.70;;;;;;5174287;22;20230;-72
2022/04/15 11:45:38;;;;;;;3.65;2.60;;;25.20;38.40;;;;;;5281538;22;20235;-73
2022/04/15 11:50:56;;;;;;;3.50;3.17;;;25.30;38.50;;;;;;5382928;22;20238;-74
2022/04/15 11:53:23;;;;;;;2.75;2.55;;;25.30;37.70;;;;;;5037794;28;20257;-74
2022/04/15 11:55:52;;;;;;;2.90;2.50;;;25.30;37.80;;;;;;5056100;28;20192;-74
2022/04/15 11:58:20;;;;;;;2.95;2.58;;;25.40;37.90;;;;;;5038515;28;20192;-74
2022/04/15 12:00:53;;;;;;;2.78;2.50;;;25.40;37.80;;;;;;5038897;28;20215;-74
2022/04/15 12:03:20;;;;;;;3.30;2.42;;;25.40;37.80;;;;;;5038299;28;20199;-74
2022/04/15 12:05:47;;;;;;;3.75;2.40;;;25.40;37.80;;;;;;5082987;22;20261;-72
2022/04/15 12:08:15;;;;;;;2.60;2.40;;;25.40;37.80;;;;;;5055759;28;20681;-72
2022/04/15 12:10:44;;;;;;;2.30;2.20;;;25.40;37.80;;;;;;5038125;28;20199;-72
2022/04/15 12:13:12;;;;;;;2.50;2.30;;;25.50;37.80;;;;;;5055823;28;20199;-72
2022/04/15 12:15:39;;;;;;;2.80;2.60;;;25.40;37.80;;;;;;5037531;28;20219;-72
2022/04/15 12:18:07;;;;;;;2.40;2.20;;;25.40;37.80;;;;;;5037360;28;20196;-72
2022/04/15 12:20:34;;;;;;;2.55;2.35;;;25.40;37.80;;;;;;5037110;28;20252;-72
2022/04/15 12:23:02;;;;;;;2.20;2.00;;;25.40;37.80;;;;;;5055548;28;20203;-72
2022/04/15 12:26:05;;;;;;;2.50;2.30;;;25.40;37.80;;;;;;5037000;28;20227;-72
2022/04/15 12:31:03;;;;;;;4.07;2.28;;;25.40;37.90;;;;;;5037654;28;20188;-72
2022/04/15 12:33:30;;;;;;;2.40;2.20;;;25.40;37.80;;;;;;5054820;28;20192;-72
2022/04/15 12:35:59;;;;;;;2.50;2.30;;;25.40;37.80;;;;;;5037218;28;20223;-72
2022/04/15 12:38:26;;;;;;;3.10;2.17;;;25.40;37.80;;;;;;5037107;28;20294;-72
2022/04/15 12:40:58;;;;;;;2.08;1.98;;;25.40;37.90;;;;;;5037173;28;20194;-72
2022/04/15 12:43:27;;;;;;;2.70;2.40;;;25.40;38.00;;;;;;5036908;28;20192;-72
2022/04/15 12:45:55;;;;;;;2.50;2.30;;;25.40;38.00;;;;;;5036739;28;20269;-72
2022/04/15 12:48:22;;;;;;;3.05;2.33;;;25.30;38.00;;;;;;5036088;28;20265;-72
2022/04/15 12:50:53;;;;;;;2.40;2.20;;;25.30;38.00;;;;;;5036066;28;20207;-72
2022/04/15 12:53:21;;;;;;;2.45;2.25;;;25.30;38.00;;;;;;5036375;28;20668;-72
2022/04/15 12:55:48;;;;;;;2.35;2.22;;;25.30;38.10;;;;;;5053902;28;20265;-72
2022/04/15 12:58:18;;;;;;;2.65;2.45;;;25.30;38.00;;;;;;5054099;28;20210;-72
2022/04/15 13:00:48;;;;;;;2.60;2.40;;;25.30;38.10;;;;;;5054065;28;20218;-72
2022/04/15 13:03:17;;;;;;;2.63;2.22;;;25.30;38.20;;;;;;5053272;28;20610;-72
2022/04/15 13:05:46;;;;;;;2.65;2.10;;;25.30;38.20;;;;;;5035771;28;20280;-72